sensor_id;sensor_type;location;lat;lon;timestamp;temperature;humidity
51595;DHT22;37677;53.254;6.594;2023-04-08T00:02:11;4.40;1.00
51595;DHT22;37677;53.254;6.594;2023-04-08T00:09:29;4.30;1.00
51595;DHT22;37677;53.254;6.594;2023-04-08T00:16:47;4.00;1.00
51595;DHT22;37677;53.254;6.594;2023-04-08T00:19:13;4.70;1.00
51595;DHT22;37677;53.254;6.594;2023-04-08T00:21:39;4.40;1.00
51595;DHT22;37677;53.254;6.594;2023-04-08T00:24:05;4.90;1.00
51595;DHT22;37677;53.254;6.594;2023-04-08T00:28:57;4.20;1.00
51595;DHT22;37677;53.254;6.594;2023-04-08T00:31:23;5.10;1.00
51595;DHT22;37677;53.254;6.594;2023-04-08T00:33:49;4.30;1.00
51595;DHT22;37677;53.254;6.594;2023-04-08T00:36:15;4.60;1.00
51595;DHT22;37677;53.254;6.594;2023-04-08T00:38:40;3.60;1.00
51595;DHT22;37677;53.254;6.594;2023-04-08T00:41:06;3.80;1.00
51595;DHT22;37677;53.254;6.594;2023-04-08T00:43:32;3.80;1.00
51595;DHT22;37677;53.254;6.594;2023-04-08T00:45:57;4.00;1.00
51595;DHT22;37677;53.254;6.594;2023-04-08T00:48:23;4.20;1.00
51595;DHT22;37677;53.254;6.594;2023-04-08T00:50:49;3.60;1.40
51595;DHT22;37677;53.254;6.594;2023-04-08T00:53:17;3.40;3.00
51595;DHT22;37677;53.254;6.594;2023-04-08T00:55:43;3.60;1.50
51595;DHT22;37677;53.254;6.594;2023-04-08T00:58:09;3.60;3.50
51595;DHT22;37677;53.254;6.594;2023-04-08T01:00:38;4.80;7.60
51595;DHT22;37677;53.254;6.594;2023-04-08T01:03:17;3.90;15.20
51595;DHT22;37677;53.254;6.594;2023-04-08T01:06:07;4.20;13.90
51595;DHT22;37677;53.254;6.594;2023-04-08T01:08:35;3.50;8.80
51595;DHT22;37677;53.254;6.594;2023-04-08T01:11:03;3.50;14.20
51595;DHT22;37677;53.254;6.594;2023-04-08T01:13:33;4.70;15.10
51595;DHT22;37677;53.254;6.594;2023-04-08T01:16:01;3.00;16.40
51595;DHT22;37677;53.254;6.594;2023-04-08T01:18:28;3.50;17.80
51595;DHT22;37677;53.254;6.594;2023-04-08T01:20:55;3.60;15.50
51595;DHT22;37677;53.254;6.594;2023-04-08T01:25:49;2.50;15.40
51595;DHT22;37677;53.254;6.594;2023-04-08T01:28:17;3.40;16.10
51595;DHT22;37677;53.254;6.594;2023-04-08T01:30:44;3.60;19.20
51595;DHT22;37677;53.254;6.594;2023-04-08T01:33:12;3.80;20.20
51595;DHT22;37677;53.254;6.594;2023-04-08T01:35:38;2.90;21.60
51595;DHT22;37677;53.254;6.594;2023-04-08T01:38:08;3.80;22.80
51595;DHT22;37677;53.254;6.594;2023-04-08T01:40:34;3.40;21.40
51595;DHT22;37677;53.254;6.594;2023-04-08T01:43:03;3.70;20.50
51595;DHT22;37677;53.254;6.594;2023-04-08T01:45:29;2.70;21.80
51595;DHT22;37677;53.254;6.594;2023-04-08T01:47:55;3.40;21.30
51595;DHT22;37677;53.254;6.594;2023-04-08T01:50:24;3.30;21.30
51595;DHT22;37677;53.254;6.594;2023-04-08T01:52:50;3.30;22.30
51595;DHT22;37677;53.254;6.594;2023-04-08T01:55:18;3.40;25.00
51595;DHT22;37677;53.254;6.594;2023-04-08T01:57:48;3.80;27.20
51595;DHT22;37677;53.254;6.594;2023-04-08T02:00:18;3.10;25.80
51595;DHT22;37677;53.254;6.594;2023-04-08T02:02:45;3.30;25.60
51595;DHT22;37677;53.254;6.594;2023-04-08T02:05:12;3.00;27.90
51595;DHT22;37677;53.254;6.594;2023-04-08T02:07:38;3.30;27.00
51595;DHT22;37677;53.254;6.594;2023-04-08T02:10:04;3.60;30.30
51595;DHT22;37677;53.254;6.594;2023-04-08T02:12:30;3.30;30.00
51595;DHT22;37677;53.254;6.594;2023-04-08T02:14:57;4.30;31.20
51595;DHT22;37677;53.254;6.594;2023-04-08T02:17:45;3.30;33.00
51595;DHT22;37677;53.254;6.594;2023-04-08T02:25:28;3.20;31.50
51595;DHT22;37677;53.254;6.594;2023-04-08T02:27:55;3.40;34.60
51595;DHT22;37677;53.254;6.594;2023-04-08T02:30:21;3.80;35.80
51595;DHT22;37677;53.254;6.594;2023-04-08T02:32:49;3.30;35.90
51595;DHT22;37677;53.254;6.594;2023-04-08T02:35:15;3.70;43.10
51595;DHT22;37677;53.254;6.594;2023-04-08T02:37:41;3.00;37.70
51595;DHT22;37677;53.254;6.594;2023-04-08T02:42:49;3.30;39.70
51595;DHT22;37677;53.254;6.594;2023-04-08T02:45:16;3.10;36.40
51595;DHT22;37677;53.254;6.594;2023-04-08T02:47:42;2.90;35.40
51595;DHT22;37677;53.254;6.594;2023-04-08T02:50:08;2.80;35.60
51595;DHT22;37677;53.254;6.594;2023-04-08T02:52:34;3.10;34.00
51595;DHT22;37677;53.254;6.594;2023-04-08T02:54:59;3.50;32.30
51595;DHT22;37677;53.254;6.594;2023-04-08T02:57:25;3.20;31.20
51595;DHT22;37677;53.254;6.594;2023-04-08T02:59:50;2.90;35.70
51595;DHT22;37677;53.254;6.594;2023-04-08T03:02:16;3.30;35.70
51595;DHT22;37677;53.254;6.594;2023-04-08T03:04:42;3.00;36.70
51595;DHT22;37677;53.254;6.594;2023-04-08T03:07:07;3.10;39.10
51595;DHT22;37677;53.254;6.594;2023-04-08T03:09:33;2.90;39.00
51595;DHT22;37677;53.254;6.594;2023-04-08T03:11:59;2.30;36.20
51595;DHT22;37677;53.254;6.594;2023-04-08T03:14:24;3.10;41.20
51595;DHT22;37677;53.254;6.594;2023-04-08T03:16:50;3.00;38.20
51595;DHT22;37677;53.254;6.594;2023-04-08T03:19:16;3.10;38.90
51595;DHT22;37677;53.254;6.594;2023-04-08T03:21:41;1.90;40.40
51595;DHT22;37677;53.254;6.594;2023-04-08T03:24:07;3.50;41.50
51595;DHT22;37677;53.254;6.594;2023-04-08T03:26:33;2.90;40.90
51595;DHT22;37677;53.254;6.594;2023-04-08T03:28:58;3.00;39.40
51595;DHT22;37677;53.254;6.594;2023-04-08T03:31:24;2.90;41.30
51595;DHT22;37677;53.254;6.594;2023-04-08T03:33:50;2.90;41.80
51595;DHT22;37677;53.254;6.594;2023-04-08T03:36:16;3.10;43.70
51595;DHT22;37677;53.254;6.594;2023-04-08T03:38:42;3.10;46.80
51595;DHT22;37677;53.254;6.594;2023-04-08T03:41:08;2.50;43.40
51595;DHT22;37677;53.254;6.594;2023-04-08T03:43:34;3.00;43.20
51595;DHT22;37677;53.254;6.594;2023-04-08T03:45:59;2.80;44.70
51595;DHT22;37677;53.254;6.594;2023-04-08T03:48:25;3.10;45.00
51595;DHT22;37677;53.254;6.594;2023-04-08T03:50:51;3.10;44.60
51595;DHT22;37677;53.254;6.594;2023-04-08T03:53:16;4.10;41.40
51595;DHT22;37677;53.254;6.594;2023-04-08T03:55:42;2.90;41.80
51595;DHT22;37677;53.254;6.594;2023-04-08T03:58:07;3.00;42.30
51595;DHT22;37677;53.254;6.594;2023-04-08T04:00:34;3.20;43.80
51595;DHT22;37677;53.254;6.594;2023-04-08T04:03:00;3.40;49.00
51595;DHT22;37677;53.254;6.594;2023-04-08T04:05:26;3.50;48.70
51595;DHT22;37677;53.254;6.594;2023-04-08T04:07:51;3.00;45.70
51595;DHT22;37677;53.254;6.594;2023-04-08T04:10:17;3.10;47.40
51595;DHT22;37677;53.254;6.594;2023-04-08T04:12:43;3.10;49.20
51595;DHT22;37677;53.254;6.594;2023-04-08T04:15:09;3.10;48.60
51595;DHT22;37677;53.254;6.594;2023-04-08T04:17:35;2.90;49.40
51595;DHT22;37677;53.254;6.594;2023-04-08T04:20:04;3.00;49.90
51595;DHT22;37677;53.254;6.594;2023-04-08T04:22:31;3.50;50.20
51595;DHT22;37677;53.254;6.594;2023-04-08T04:24:56;2.50;50.60
51595;DHT22;37677;53.254;6.594;2023-04-08T04:27:22;3.10;50.30
51595;DHT22;37677;53.254;6.594;2023-04-08T04:29:47;2.90;53.90
51595;DHT22;37677;53.254;6.594;2023-04-08T04:32:13;3.40;54.80
51595;DHT22;37677;53.254;6.594;2023-04-08T04:34:39;2.90;55.60
51595;DHT22;37677;53.254;6.594;2023-04-08T04:37:05;3.60;51.60
51595;DHT22;37677;53.254;6.594;2023-04-08T04:39:30;2.50;52.90
51595;DHT22;37677;53.254;6.594;2023-04-08T04:41:56;2.50;59.00
51595;DHT22;37677;53.254;6.594;2023-04-08T04:44:22;2.90;53.00
51595;DHT22;37677;53.254;6.594;2023-04-08T04:46:48;2.80;54.20
51595;DHT22;37677;53.254;6.594;2023-04-08T04:49:14;2.90;54.30
51595;DHT22;37677;53.254;6.594;2023-04-08T04:51:39;2.70;52.40
51595;DHT22;37677;53.254;6.594;2023-04-08T04:54:05;2.80;59.00
51595;DHT22;37677;53.254;6.594;2023-04-08T04:56:31;1.90;52.70
51595;DHT22;37677;53.254;6.594;2023-04-08T04:58:56;2.40;54.30
51595;DHT22;37677;53.254;6.594;2023-04-08T05:01:22;3.20;55.80
51595;DHT22;37677;53.254;6.594;2023-04-08T05:03:48;2.50;59.60
51595;DHT22;37677;53.254;6.594;2023-04-08T05:06:13;3.10;57.10
51595;DHT22;37677;53.254;6.594;2023-04-08T05:08:39;3.40;61.00
51595;DHT22;37677;53.254;6.594;2023-04-08T05:11:09;3.00;62.20
51595;DHT22;37677;53.254;6.594;2023-04-08T05:13:34;3.70;59.70
51595;DHT22;37677;53.254;6.594;2023-04-08T05:16:00;3.10;60.70
51595;DHT22;37677;53.254;6.594;2023-04-08T05:18:26;3.20;61.10
51595;DHT22;37677;53.254;6.594;2023-04-08T05:20:52;3.90;64.40
51595;DHT22;37677;53.254;6.594;2023-04-08T05:23:17;3.20;62.70
51595;DHT22;37677;53.254;6.594;2023-04-08T05:25:43;3.40;65.70
51595;DHT22;37677;53.254;6.594;2023-04-08T05:28:09;3.40;64.90
51595;DHT22;37677;53.254;6.594;2023-04-08T05:30:35;3.40;61.50
51595;DHT22;37677;53.254;6.594;2023-04-08T05:33:00;3.50;67.90
51595;DHT22;37677;53.254;6.594;2023-04-08T05:35:27;3.60;64.00
51595;DHT22;37677;53.254;6.594;2023-04-08T05:37:53;3.40;65.70
51595;DHT22;37677;53.254;6.594;2023-04-08T05:40:18;3.60;60.20
51595;DHT22;37677;53.254;6.594;2023-04-08T05:42:44;4.40;61.70
51595;DHT22;37677;53.254;6.594;2023-04-08T05:45:10;4.20;62.30
51595;DHT22;37677;53.254;6.594;2023-04-08T05:47:36;4.20;61.00
51595;DHT22;37677;53.254;6.594;2023-04-08T05:50:02;4.60;61.50
51595;DHT22;37677;53.254;6.594;2023-04-08T05:52:27;3.90;63.30
51595;DHT22;37677;53.254;6.594;2023-04-08T05:54:53;3.80;59.30
51595;DHT22;37677;53.254;6.594;2023-04-08T05:57:19;3.90;60.60
51595;DHT22;37677;53.254;6.594;2023-04-08T05:59:44;4.10;61.60
51595;DHT22;37677;53.254;6.594;2023-04-08T06:02:10;4.60;58.90
51595;DHT22;37677;53.254;6.594;2023-04-08T06:04:36;4.50;61.00
51595;DHT22;37677;53.254;6.594;2023-04-08T06:07:01;4.60;58.20
51595;DHT22;37677;53.254;6.594;2023-04-08T06:09:28;4.90;52.00
51595;DHT22;37677;53.254;6.594;2023-04-08T06:11:54;4.10;50.00
51595;DHT22;37677;53.254;6.594;2023-04-08T06:14:21;4.60;62.20
51595;DHT22;37677;53.254;6.594;2023-04-08T06:16:47;4.70;57.40
51595;DHT22;37677;53.254;6.594;2023-04-08T06:19:13;4.90;50.60
51595;DHT22;37677;53.254;6.594;2023-04-08T06:21:38;5.10;52.30
51595;DHT22;37677;53.254;6.594;2023-04-08T06:24:04;5.80;56.70
51595;DHT22;37677;53.254;6.594;2023-04-08T06:26:30;5.30;54.50
51595;DHT22;37677;53.254;6.594;2023-04-08T06:28:55;5.60;54.90
51595;DHT22;37677;53.254;6.594;2023-04-08T06:31:21;5.80;52.40
51595;DHT22;37677;53.254;6.594;2023-04-08T06:33:47;5.90;50.70
51595;DHT22;37677;53.254;6.594;2023-04-08T06:36:12;6.50;48.20
51595;DHT22;37677;53.254;6.594;2023-04-08T06:38:38;6.20;44.60
51595;DHT22;37677;53.254;6.594;2023-04-08T06:41:05;6.30;44.00
51595;DHT22;37677;53.254;6.594;2023-04-08T06:43:31;6.70;44.30
51595;DHT22;37677;53.254;6.594;2023-04-08T06:45:57;6.90;49.70
51595;DHT22;37677;53.254;6.594;2023-04-08T06:48:24;7.90;64.70
51595;DHT22;37677;53.254;6.594;2023-04-08T06:50:57;8.60;43.40
51595;DHT22;37677;53.254;6.594;2023-04-08T06:53:23;9.80;1.00
51595;DHT22;37677;53.254;6.594;2023-04-08T06:55:49;10.50;1.60
51595;DHT22;37677;53.254;6.594;2023-04-08T06:58:15;10.70;1.00
51595;DHT22;37677;53.254;6.594;2023-04-08T07:00:41;10.50;1.00
51595;DHT22;37677;53.254;6.594;2023-04-08T07:03:07;10.20;1.00
51595;DHT22;37677;53.254;6.594;2023-04-08T07:05:35;9.70;1.00
51595;DHT22;37677;53.254;6.594;2023-04-08T07:08:01;9.40;1.00
51595;DHT22;37677;53.254;6.594;2023-04-08T07:10:27;9.20;1.00
51595;DHT22;37677;53.254;6.594;2023-04-08T07:12:53;8.90;1.00
51595;DHT22;37677;53.254;6.594;2023-04-08T07:15:18;9.20;1.00
51595;DHT22;37677;53.254;6.594;2023-04-08T07:17:44;8.80;1.00
51595;DHT22;37677;53.254;6.594;2023-04-08T07:20:12;9.40;1.00
51595;DHT22;37677;53.254;6.594;2023-04-08T07:22:38;8.60;1.00
51595;DHT22;37677;53.254;6.594;2023-04-08T07:25:05;9.00;1.00
51595;DHT22;37677;53.254;6.594;2023-04-08T07:27:35;8.30;1.00
51595;DHT22;37677;53.254;6.594;2023-04-08T07:30:01;8.30;1.00
51595;DHT22;37677;53.254;6.594;2023-04-08T07:32:27;8.10;1.00
51595;DHT22;37677;53.254;6.594;2023-04-08T07:34:53;7.80;1.00
51595;DHT22;37677;53.254;6.594;2023-04-08T07:37:18;7.90;1.00
51595;DHT22;37677;53.254;6.594;2023-04-08T07:39:44;7.60;1.00
51595;DHT22;37677;53.254;6.594;2023-04-08T07:42:10;7.70;1.00
51595;DHT22;37677;53.254;6.594;2023-04-08T07:44:36;7.30;1.00
51595;DHT22;37677;53.254;6.594;2023-04-08T07:47:03;7.20;1.00
51595;DHT22;37677;53.254;6.594;2023-04-08T07:49:28;7.60;1.00
51595;DHT22;37677;53.254;6.594;2023-04-08T07:51:54;7.00;1.00
51595;DHT22;37677;53.254;6.594;2023-04-08T07:54:20;7.40;1.00
51595;DHT22;37677;53.254;6.594;2023-04-08T07:56:45;7.00;1.00
51595;DHT22;37677;53.254;6.594;2023-04-08T07:59:11;7.40;1.00
51595;DHT22;37677;53.254;6.594;2023-04-08T08:01:37;7.70;1.00
51595;DHT22;37677;53.254;6.594;2023-04-08T08:04:03;7.40;1.00
51595;DHT22;37677;53.254;6.594;2023-04-08T08:06:29;7.20;1.00
51595;DHT22;37677;53.254;6.594;2023-04-08T08:08:57;9.10;1.00
51595;DHT22;37677;53.254;6.594;2023-04-08T08:11:23;7.50;1.00
51595;DHT22;37677;53.254;6.594;2023-04-08T08:13:49;7.50;1.00
51595;DHT22;37677;53.254;6.594;2023-04-08T08:16:14;7.60;1.00
51595;DHT22;37677;53.254;6.594;2023-04-08T08:18:40;8.00;1.00
51595;DHT22;37677;53.254;6.594;2023-04-08T08:21:07;8.80;1.00
51595;DHT22;37677;53.254;6.594;2023-04-08T08:23:33;7.80;1.00
51595;DHT22;37677;53.254;6.594;2023-04-08T08:26:03;7.20;1.00
51595;DHT22;37677;53.254;6.594;2023-04-08T08:28:29;7.70;3.40
51595;DHT22;37677;53.254;6.594;2023-04-08T08:30:54;7.40;7.40
51595;DHT22;37677;53.254;6.594;2023-04-08T08:33:20;7.80;6.60
51595;DHT22;37677;53.254;6.594;2023-04-08T08:35:46;7.50;9.30
51595;DHT22;37677;53.254;6.594;2023-04-08T08:38:12;7.60;11.40
51595;DHT22;37677;53.254;6.594;2023-04-08T08:40:38;7.40;7.10
51595;DHT22;37677;53.254;6.594;2023-04-08T08:43:04;7.60;10.10
51595;DHT22;37677;53.254;6.594;2023-04-08T08:45:30;7.10;12.10
51595;DHT22;37677;53.254;6.594;2023-04-08T08:47:57;7.40;12.30
51595;DHT22;37677;53.254;6.594;2023-04-08T08:50:23;7.30;11.50
51595;DHT22;37677;53.254;6.594;2023-04-08T08:52:52;7.30;15.00
51595;DHT22;37677;53.254;6.594;2023-04-08T08:55:21;7.40;14.00
51595;DHT22;37677;53.254;6.594;2023-04-08T08:57:50;7.90;14.10
51595;DHT22;37677;53.254;6.594;2023-04-08T09:00:16;7.40;14.00
51595;DHT22;37677;53.254;6.594;2023-04-08T09:02:42;7.50;14.10
51595;DHT22;37677;53.254;6.594;2023-04-08T09:05:08;7.60;12.60
51595;DHT22;37677;53.254;6.594;2023-04-08T09:07:37;7.50;9.50
51595;DHT22;37677;53.254;6.594;2023-04-08T09:10:07;7.70;7.30
51595;DHT22;37677;53.254;6.594;2023-04-08T09:12:32;7.70;8.70
51595;DHT22;37677;53.254;6.594;2023-04-08T09:15:08;8.40;9.30
51595;DHT22;37677;53.254;6.594;2023-04-08T09:17:37;7.70;7.80
51595;DHT22;37677;53.254;6.594;2023-04-08T09:22:30;8.70;9.30
51595;DHT22;37677;53.254;6.594;2023-04-08T09:24:56;9.60;5.70
51595;DHT22;37677;53.254;6.594;2023-04-08T09:27:34;7.90;3.90
51595;DHT22;37677;53.254;6.594;2023-04-08T09:30:14;8.40;5.90
51595;DHT22;37677;53.254;6.594;2023-04-08T09:32:52;8.20;9.00
51595;DHT22;37677;53.254;6.594;2023-04-08T09:35:19;8.10;13.60
51595;DHT22;37677;53.254;6.594;2023-04-08T09:37:45;8.50;12.30
51595;DHT22;37677;53.254;6.594;2023-04-08T09:40:11;8.50;10.30
51595;DHT22;37677;53.254;6.594;2023-04-08T09:42:39;8.30;10.20
51595;DHT22;37677;53.254;6.594;2023-04-08T09:45:06;8.90;9.40
51595;DHT22;37677;53.254;6.594;2023-04-08T09:47:41;8.50;6.40
51595;DHT22;37677;53.254;6.594;2023-04-08T09:50:09;8.50;5.30
51595;DHT22;37677;53.254;6.594;2023-04-08T09:52:48;8.60;1.00
51595;DHT22;37677;53.254;6.594;2023-04-08T09:55:24;8.90;1.00
51595;DHT22;37677;53.254;6.594;2023-04-08T09:58:00;8.90;1.90
51595;DHT22;37677;53.254;6.594;2023-04-08T10:00:37;8.80;1.00
51595;DHT22;37677;53.254;6.594;2023-04-08T10:03:27;8.80;1.00
51595;DHT22;37677;53.254;6.594;2023-04-08T10:05:54;8.90;1.00
51595;DHT22;37677;53.254;6.594;2023-04-08T10:08:22;9.20;1.00
51595;DHT22;37677;53.254;6.594;2023-04-08T10:10:49;9.30;2.40
51595;DHT22;37677;53.254;6.594;2023-04-08T10:13:15;9.00;1.00
51595;DHT22;37677;53.254;6.594;2023-04-08T10:15:41;8.90;4.20
51595;DHT22;37677;53.254;6.594;2023-04-08T10:23:03;9.10;1.00
51595;DHT22;37677;53.254;6.594;2023-04-08T10:25:33;9.00;1.00
51595;DHT22;37677;53.254;6.594;2023-04-08T10:28:00;9.20;1.00
51595;DHT22;37677;53.254;6.594;2023-04-08T10:32:53;9.20;1.00
51595;DHT22;37677;53.254;6.594;2023-04-08T10:35:37;9.20;1.00
51595;DHT22;37677;53.254;6.594;2023-04-08T10:38:06;9.40;1.00
51595;DHT22;37677;53.254;6.594;2023-04-08T10:40:36;9.50;1.00
51595;DHT22;37677;53.254;6.594;2023-04-08T10:43:03;9.20;1.00
51595;DHT22;37677;53.254;6.594;2023-04-08T10:45:30;9.20;1.00
51595;DHT22;37677;53.254;6.594;2023-04-08T10:47:55;9.20;8.00
51595;DHT22;37677;53.254;6.594;2023-04-08T10:50:21;9.40;7.70
51595;DHT22;37677;53.254;6.594;2023-04-08T10:52:50;9.40;1.00
51595;DHT22;37677;53.254;6.594;2023-04-08T10:55:22;9.10;3.50
51595;DHT22;37677;53.254;6.594;2023-04-08T10:57:49;9.20;1.20
51595;DHT22;37677;53.254;6.594;2023-04-08T11:00:39;9.40;4.40
51595;DHT22;37677;53.254;6.594;2023-04-08T11:03:10;9.30;9.50
51595;DHT22;37677;53.254;6.594;2023-04-08T11:05:37;10.10;22.90
51595;DHT22;37677;53.254;6.594;2023-04-08T11:08:04;11.20;23.90
51595;DHT22;37677;53.254;6.594;2023-04-08T11:10:33;10.30;3.50
51595;DHT22;37677;53.254;6.594;2023-04-08T11:13:01;10.20;1.00
51595;DHT22;37677;53.254;6.594;2023-04-08T11:15:29;9.70;1.00
51595;DHT22;37677;53.254;6.594;2023-04-08T11:17:55;10.00;1.00
51595;DHT22;37677;53.254;6.594;2023-04-08T11:20:21;9.90;1.00
51595;DHT22;37677;53.254;6.594;2023-04-08T11:22:47;9.90;1.00
51595;DHT22;37677;53.254;6.594;2023-04-08T11:25:13;10.00;1.00
51595;DHT22;37677;53.254;6.594;2023-04-08T11:27:39;10.10;1.00
51595;DHT22;37677;53.254;6.594;2023-04-08T11:30:06;9.90;1.00
51595;DHT22;37677;53.254;6.594;2023-04-08T11:32:34;9.90;1.00
51595;DHT22;37677;53.254;6.594;2023-04-08T11:35:04;10.10;1.00
51595;DHT22;37677;53.254;6.594;2023-04-08T11:37:39;10.10;1.00
51595;DHT22;37677;53.254;6.594;2023-04-08T11:40:07;10.00;1.00
51595;DHT22;37677;53.254;6.594;2023-04-08T11:42:33;9.90;1.00
51595;DHT22;37677;53.254;6.594;2023-04-08T11:44:59;10.20;1.00
51595;DHT22;37677;53.254;6.594;2023-04-08T11:47:32;10.20;1.00
51595;DHT22;37677;53.254;6.594;2023-04-08T11:49:58;10.10;1.00
51595;DHT22;37677;53.254;6.594;2023-04-08T11:52:43;10.10;1.00
51595;DHT22;37677;53.254;6.594;2023-04-08T11:55:10;10.10;1.00
51595;DHT22;37677;53.254;6.594;2023-04-08T11:57:37;10.10;1.00
51595;DHT22;37677;53.254;6.594;2023-04-08T12:00:05;10.70;1.00
51595;DHT22;37677;53.254;6.594;2023-04-08T12:02:31;10.00;1.00
51595;DHT22;37677;53.254;6.594;2023-04-08T12:04:57;9.90;1.00
51595;DHT22;37677;53.254;6.594;2023-04-08T12:07:22;10.10;1.00
51595;DHT22;37677;53.254;6.594;2023-04-08T12:09:48;10.90;1.00
51595;DHT22;37677;53.254;6.594;2023-04-08T12:12:14;11.50;5.50
51595;DHT22;37677;53.254;6.594;2023-04-08T12:14:41;11.70;1.00
51595;DHT22;37677;53.254;6.594;2023-04-08T12:17:06;12.00;1.00
51595;DHT22;37677;53.254;6.594;2023-04-08T12:19:32;12.10;1.00
51595;DHT22;37677;53.254;6.594;2023-04-08T12:21:58;12.50;1.00
51595;DHT22;37677;53.254;6.594;2023-04-08T12:24:23;12.70;1.00
51595;DHT22;37677;53.254;6.594;2023-04-08T12:26:49;12.80;1.00
51595;DHT22;37677;53.254;6.594;2023-04-08T12:29:15;12.90;1.00
51595;DHT22;37677;53.254;6.594;2023-04-08T12:31:40;13.00;1.00
51595;DHT22;37677;53.254;6.594;2023-04-08T12:34:06;13.00;99.90
51595;DHT22;37677;53.254;6.594;2023-04-08T12:36:32;12.90;99.90
51595;DHT22;37677;53.254;6.594;2023-04-08T12:38:58;14.20;99.90
51595;DHT22;37677;53.254;6.594;2023-04-08T12:41:23;14.40;99.90
51595;DHT22;37677;53.254;6.594;2023-04-08T12:43:49;13.10;99.90
51595;DHT22;37677;53.254;6.594;2023-04-08T12:46:14;13.70;99.90
51595;DHT22;37677;53.254;6.594;2023-04-08T12:48:41;12.90;99.90
51595;DHT22;37677;53.254;6.594;2023-04-08T12:51:09;13.90;99.90
51595;DHT22;37677;53.254;6.594;2023-04-08T12:53:35;12.10;99.90
51595;DHT22;37677;53.254;6.594;2023-04-08T12:56:00;12.50;99.90
51595;DHT22;37677;53.254;6.594;2023-04-08T12:58:27;12.20;99.90
51595;DHT22;37677;53.254;6.594;2023-04-08T13:00:52;12.10;99.90
51595;DHT22;37677;53.254;6.594;2023-04-08T13:03:18;12.80;1.00
51595;DHT22;37677;53.254;6.594;2023-04-08T13:05:44;13.10;99.90
51595;DHT22;37677;53.254;6.594;2023-04-08T13:08:10;12.60;99.90
51595;DHT22;37677;53.254;6.594;2023-04-08T13:10:38;11.80;99.90
51595;DHT22;37677;53.254;6.594;2023-04-08T13:13:06;13.30;99.90
51595;DHT22;37677;53.254;6.594;2023-04-08T13:15:31;13.60;99.90
51595;DHT22;37677;53.254;6.594;2023-04-08T13:17:57;14.20;99.90
51595;DHT22;37677;53.254;6.594;2023-04-08T13:20:23;13.10;90.40
51595;DHT22;37677;53.254;6.594;2023-04-08T13:22:51;13.50;99.90
51595;DHT22;37677;53.254;6.594;2023-04-08T13:25:17;13.40;99.90
51595;DHT22;37677;53.254;6.594;2023-04-08T13:27:43;12.90;67.50
51595;DHT22;37677;53.254;6.594;2023-04-08T13:30:09;12.60;99.90
51595;DHT22;37677;53.254;6.594;2023-04-08T13:32:34;12.60;1.00
51595;DHT22;37677;53.254;6.594;2023-04-08T13:35:01;12.60;1.00
51595;DHT22;37677;53.254;6.594;2023-04-08T13:37:26;12.30;30.10
51595;DHT22;37677;53.254;6.594;2023-04-08T13:39:53;12.50;59.30
51595;DHT22;37677;53.254;6.594;2023-04-08T13:42:19;12.40;30.20
51595;DHT22;37677;53.254;6.594;2023-04-08T13:44:44;12.40;99.90
51595;DHT22;37677;53.254;6.594;2023-04-08T13:47:10;11.30;91.70
51595;DHT22;37677;53.254;6.594;2023-04-08T13:49:37;12.20;99.90
51595;DHT22;37677;53.254;6.594;2023-04-08T13:52:02;12.30;99.90
51595;DHT22;37677;53.254;6.594;2023-04-08T13:54:28;13.50;99.90
51595;DHT22;37677;53.254;6.594;2023-04-08T13:56:54;12.30;99.90
51595;DHT22;37677;53.254;6.594;2023-04-08T13:59:20;12.80;99.90
51595;DHT22;37677;53.254;6.594;2023-04-08T14:01:45;13.20;99.90
51595;DHT22;37677;53.254;6.594;2023-04-08T14:04:11;12.10;99.90
51595;DHT22;37677;53.254;6.594;2023-04-08T14:06:37;12.50;99.90
51595;DHT22;37677;53.254;6.594;2023-04-08T14:09:03;12.60;99.90
51595;DHT22;37677;53.254;6.594;2023-04-08T14:11:28;12.80;99.90
51595;DHT22;37677;53.254;6.594;2023-04-08T14:13:54;12.80;99.90
51595;DHT22;37677;53.254;6.594;2023-04-08T14:16:20;12.90;99.90
51595;DHT22;37677;53.254;6.594;2023-04-08T14:18:45;13.10;99.90
51595;DHT22;37677;53.254;6.594;2023-04-08T14:21:11;13.30;99.90
51595;DHT22;37677;53.254;6.594;2023-04-08T14:23:39;13.50;99.90
51595;DHT22;37677;53.254;6.594;2023-04-08T14:26:05;13.70;99.90
51595;DHT22;37677;53.254;6.594;2023-04-08T14:28:31;13.50;99.90
51595;DHT22;37677;53.254;6.594;2023-04-08T14:30:56;13.20;1.00
51595;DHT22;37677;53.254;6.594;2023-04-08T14:33:22;13.40;40.10
51595;DHT22;37677;53.254;6.594;2023-04-08T14:35:48;13.10;34.40
51595;DHT22;37677;53.254;6.594;2023-04-08T14:38:13;12.90;65.50
51595;DHT22;37677;53.254;6.594;2023-04-08T14:40:39;13.00;98.50
51595;DHT22;37677;53.254;6.594;2023-04-08T14:43:05;12.80;99.40
51595;DHT22;37677;53.254;6.594;2023-04-08T14:45:31;13.90;99.90
51595;DHT22;37677;53.254;6.594;2023-04-08T14:47:57;13.10;99.90
51595;DHT22;37677;53.254;6.594;2023-04-08T14:50:23;13.30;99.90
51595;DHT22;37677;53.254;6.594;2023-04-08T14:52:48;13.10;99.90
51595;DHT22;37677;53.254;6.594;2023-04-08T14:55:14;13.10;99.90
51595;DHT22;37677;53.254;6.594;2023-04-08T14:57:41;12.50;99.90
51595;DHT22;37677;53.254;6.594;2023-04-08T15:00:07;12.70;99.90
51595;DHT22;37677;53.254;6.594;2023-04-08T15:02:32;13.00;99.90
51595;DHT22;37677;53.254;6.594;2023-04-08T15:04:58;12.80;99.90
51595;DHT22;37677;53.254;6.594;2023-04-08T15:07:24;12.80;99.90
51595;DHT22;37677;53.254;6.594;2023-04-08T15:09:50;12.80;99.90
51595;DHT22;37677;53.254;6.594;2023-04-08T15:12:16;12.70;99.90
51595;DHT22;37677;53.254;6.594;2023-04-08T15:14:42;12.70;99.90
51595;DHT22;37677;53.254;6.594;2023-04-08T15:17:07;12.50;99.90
51595;DHT22;37677;53.254;6.594;2023-04-08T15:19:34;12.30;99.90
51595;DHT22;37677;53.254;6.594;2023-04-08T15:22:00;12.30;99.90
51595;DHT22;37677;53.254;6.594;2023-04-08T15:24:25;12.30;99.90
51595;DHT22;37677;53.254;6.594;2023-04-08T15:26:51;12.40;99.90
51595;DHT22;37677;53.254;6.594;2023-04-08T15:29:17;12.20;99.90
51595;DHT22;37677;53.254;6.594;2023-04-08T15:31:42;11.90;99.90
51595;DHT22;37677;53.254;6.594;2023-04-08T15:34:08;12.00;99.90
51595;DHT22;37677;53.254;6.594;2023-04-08T15:36:34;12.00;99.90
51595;DHT22;37677;53.254;6.594;2023-04-08T15:39:02;11.80;99.90
51595;DHT22;37677;53.254;6.594;2023-04-08T15:41:28;11.80;99.90
51595;DHT22;37677;53.254;6.594;2023-04-08T15:43:55;11.70;99.90
51595;DHT22;37677;53.254;6.594;2023-04-08T15:46:21;11.70;99.90
51595;DHT22;37677;53.254;6.594;2023-04-08T15:48:48;11.80;99.90
51595;DHT22;37677;53.254;6.594;2023-04-08T15:51:14;11.90;99.90
51595;DHT22;37677;53.254;6.594;2023-04-08T15:53:40;12.10;99.90
51595;DHT22;37677;53.254;6.594;2023-04-08T15:56:10;11.70;99.90
51595;DHT22;37677;53.254;6.594;2023-04-08T15:58:36;12.80;99.90
51595;DHT22;37677;53.254;6.594;2023-04-08T16:01:02;11.80;99.90
51595;DHT22;37677;53.254;6.594;2023-04-08T16:03:27;12.00;99.90
51595;DHT22;37677;53.254;6.594;2023-04-08T16:05:53;11.80;1.00
51595;DHT22;37677;53.254;6.594;2023-04-08T16:08:19;11.90;1.00
51595;DHT22;37677;53.254;6.594;2023-04-08T16:10:45;11.90;1.00
51595;DHT22;37677;53.254;6.594;2023-04-08T16:13:11;11.80;1.00
51595;DHT22;37677;53.254;6.594;2023-04-08T16:15:37;11.80;1.00
51595;DHT22;37677;53.254;6.594;2023-04-08T16:18:02;11.80;1.00